createdAt,value
2023-04-28T00:02:19.006Z,74.00
2023-04-28T00:04:48.144Z,74.20
2023-04-28T00:07:15.128Z,74.20
2023-04-28T00:09:42.149Z,74.30
2023-04-28T00:12:09.096Z,74.40
2023-04-28T00:14:36.064Z,74.50
2023-04-28T00:17:03.631Z,74.70
2023-04-28T00:19:30.602Z,74.80
2023-04-28T00:21:57.505Z,74.90
2023-04-28T00:24:24.480Z,74.90
2023-04-28T00:26:51.354Z,75.10
2023-04-28T00:29:18.359Z,75.20
2023-04-28T00:31:45.413Z,75.20
2023-04-28T00:34:14.773Z,75.30
2023-04-28T00:36:42.028Z,75.40
2023-04-28T00:39:10.131Z,75.50
2023-04-28T00:41:37.294Z,75.50
2023-04-28T00:44:04.830Z,75.60
2023-04-28T00:46:33.447Z,75.50
2023-04-28T00:49:00.517Z,75.60
2023-04-28T00:51:29.156Z,75.70
2023-04-28T00:53:57.088Z,75.80
2023-04-28T00:56:24.134Z,75.80
2023-04-28T00:58:51.110Z,75.80
2023-04-28T01:01:18.233Z,75.80
2023-04-28T01:03:46.081Z,75.90
2023-04-28T01:06:14.703Z,75.90
2023-04-28T01:08:42.632Z,76.10
2023-04-28T01:11:15.453Z,76.20
2023-04-28T01:14:05.216Z,76.10
2023-04-28T01:16:38.370Z,76.00
2023-04-28T01:19:08.615Z,76.30
2023-04-28T01:21:39.195Z,76.40
2023-04-28T01:24:25.602Z,76.40
2023-04-28T01:26:52.713Z,76.50
2023-04-28T01:29:19.659Z,76.50
2023-04-28T01:31:46.638Z,76.40
2023-04-28T01:34:14.198Z,76.40
2023-04-28T01:36:42.337Z,76.20
2023-04-28T01:39:10.894Z,76.20
2023-04-28T01:41:40.469Z,76.10
2023-04-28T01:44:07.788Z,76.20
2023-04-28T01:46:35.423Z,76.10
2023-04-28T01:49:02.397Z,76.10
2023-04-28T01:51:29.420Z,76.00
2023-04-28T01:53:56.460Z,76.00
2023-04-28T01:56:24.262Z,75.90
2023-04-28T01:58:53.998Z,75.90
2023-04-28T02:01:21.271Z,75.90
2023-04-28T02:03:49.195Z,76.00
2023-04-28T02:06:16.891Z,76.00
2023-04-28T02:08:43.868Z,76.00
2023-04-28T02:11:13.011Z,76.00
2023-04-28T02:13:41.100Z,75.90
2023-04-28T02:16:08.235Z,75.90
2023-04-28T02:18:36.290Z,75.90
2023-04-28T02:21:13.745Z,75.90
2023-04-28T02:23:40.893Z,76.20
2023-04-28T02:26:07.875Z,76.10
2023-04-28T02:28:34.844Z,76.10
2023-04-28T02:31:09.645Z,76.20
2023-04-28T02:33:37.719Z,76.40
2023-04-28T02:36:05.760Z,76.50
2023-04-28T02:38:32.953Z,76.60
2023-04-28T02:41:00.210Z,76.70
2023-04-28T02:43:27.971Z,76.80
2023-04-28T02:45:55.518Z,77.00
2023-04-28T02:48:23.088Z,77.10
2023-04-28T02:50:50.484Z,77.30
2023-04-28T02:53:17.480Z,77.40
2023-04-28T02:55:44.962Z,77.50
2023-04-28T02:58:12.440Z,77.60
2023-04-28T03:00:39.523Z,77.70
2023-04-28T03:03:06.627Z,77.80
2023-04-28T03:05:33.730Z,77.90
2023-04-28T03:08:01.109Z,77.90
2023-04-28T03:10:28.813Z,78.00
2023-04-28T03:12:55.766Z,78.10
2023-04-28T03:15:22.717Z,78.20
2023-04-28T03:17:49.698Z,78.30
2023-04-28T03:20:18.305Z,78.40
2023-04-28T03:22:45.425Z,78.40
2023-04-28T03:25:12.502Z,78.50
2023-04-28T03:27:47.488Z,78.50
2023-04-28T03:30:14.647Z,78.50
2023-04-28T03:32:41.731Z,78.60
2023-04-28T03:35:09.677Z,78.70
2023-04-28T03:37:37.556Z,78.70
2023-04-28T03:40:05.954Z,78.80
2023-04-28T03:42:46.982Z,79.00
2023-04-28T03:45:23.040Z,78.90
2023-04-28T03:47:50.105Z,79.20
2023-04-28T03:50:17.421Z,79.30
2023-04-28T03:52:45.480Z,79.40
2023-04-28T03:55:12.490Z,79.60
2023-04-28T03:57:39.729Z,79.30
2023-04-28T04:00:07.824Z,79.20
2023-04-28T04:02:42.735Z,79.30
2023-04-28T04:05:10.297Z,79.30
2023-04-28T04:07:37.762Z,79.20
2023-04-28T04:10:06.089Z,79.30
2023-04-28T04:12:35.035Z,79.50
2023-04-28T04:15:02.231Z,79.50
2023-04-28T04:17:29.422Z,79.70
2023-04-28T04:19:56.410Z,79.80
2023-04-28T04:22:23.482Z,80.00
2023-04-28T04:24:51.138Z,80.10
2023-04-28T04:27:18.162Z,80.30
2023-04-28T04:29:45.096Z,80.60
2023-04-28T04:32:13.732Z,80.80
2023-04-28T04:34:42.037Z,81.10
2023-04-28T04:37:10.365Z,81.10
2023-04-28T04:39:43.076Z,81.00
2023-04-28T04:42:23.196Z,81.00
2023-04-28T04:45:07.402Z,80.90
2023-04-28T04:47:36.008Z,80.70
2023-04-28T04:50:03.065Z,80.40
2023-04-28T04:52:30.080Z,80.20
2023-04-28T04:54:57.090Z,79.90
2023-04-28T04:57:25.407Z,79.60
2023-04-28T05:00:07.834Z,79.30
2023-04-28T05:02:35.515Z,79.00
2023-04-28T05:05:19.726Z,78.80
2023-04-28T05:07:57.866Z,78.60
2023-04-28T05:10:25.338Z,78.20
2023-04-28T05:12:52.350Z,78.00
2023-04-28T05:15:19.319Z,77.90
2023-04-28T05:18:10.986Z,77.50
2023-04-28T05:20:38.159Z,77.30
2023-04-28T05:23:06.040Z,77.10
2023-04-28T05:25:33.638Z,76.90
2023-04-28T05:28:04.931Z,77.10
2023-04-28T05:30:32.114Z,76.60
2023-04-28T05:32:59.520Z,76.30
2023-04-28T05:35:26.928Z,76.00
2023-04-28T05:37:54.012Z,75.80
2023-04-28T05:40:22.270Z,75.50
2023-04-28T05:42:49.598Z,75.40
2023-04-28T05:45:16.644Z,75.10
2023-04-28T05:47:44.066Z,75.00
2023-04-28T05:50:11.400Z,74.60
2023-04-28T05:52:38.655Z,74.50
2023-04-28T05:55:06.126Z,74.00
2023-04-28T05:57:42.081Z,73.30
2023-04-28T06:00:13.182Z,72.50
2023-04-28T06:02:40.741Z,71.60
2023-04-28T06:05:08.453Z,70.80
2023-04-28T06:07:36.238Z,70.00
2023-04-28T06:10:03.255Z,69.70
2023-04-28T06:12:30.641Z,69.40
2023-04-28T06:14:57.969Z,69.10
2023-04-28T06:17:26.560Z,68.70
2023-04-28T06:19:54.731Z,68.30
2023-04-28T06:22:21.750Z,68.20
2023-04-28T06:24:48.704Z,67.90
2023-04-28T06:27:19.822Z,67.60
2023-04-28T06:29:47.183Z,67.50
2023-04-28T06:32:14.259Z,67.50
2023-04-28T06:34:42.763Z,67.50
2023-04-28T06:37:09.729Z,67.70
2023-04-28T06:39:38.554Z,67.90
2023-04-28T06:42:07.223Z,68.00
2023-04-28T06:44:36.989Z,67.90
2023-04-28T06:47:04.156Z,67.70
2023-04-28T06:49:31.270Z,67.30
2023-04-28T06:52:00.957Z,66.60
2023-04-28T06:54:32.699Z,66.10
2023-04-28T06:56:59.669Z,65.90
2023-04-28T06:59:26.587Z,65.50
2023-04-28T07:01:53.763Z,65.20
2023-04-28T07:04:24.051Z,64.80
2023-04-28T07:06:52.260Z,64.40
2023-04-28T07:09:19.494Z,63.30
2023-04-28T07:11:46.612Z,62.20
2023-04-28T07:14:13.810Z,60.80
2023-04-28T07:16:41.034Z,60.50
2023-04-28T07:19:07.989Z,59.70
2023-04-28T07:21:34.930Z,59.70
2023-04-28T07:24:02.111Z,59.60
2023-04-28T07:26:29.091Z,59.10
2023-04-28T07:28:56.244Z,58.60
2023-04-28T07:31:23.225Z,58.50
2023-04-28T07:33:50.282Z,58.30
2023-04-28T07:36:17.277Z,58.00
2023-04-28T07:38:47.210Z,57.40
2023-04-28T07:41:14.268Z,57.10
2023-04-28T07:43:45.720Z,56.60
2023-04-28T07:46:18.634Z,56.00
2023-04-28T07:48:52.846Z,55.80
2023-04-28T07:51:19.810Z,54.80
2023-04-28T07:53:46.753Z,53.80
2023-04-28T07:56:13.743Z,53.00
2023-04-28T07:58:42.892Z,52.70
2023-04-28T08:01:13.279Z,52.10
2023-04-28T08:03:42.965Z,51.80
2023-04-28T08:06:10.441Z,52.30
2023-04-28T08:08:37.653Z,52.50
2023-04-28T08:11:05.366Z,52.90
2023-04-28T08:13:33.545Z,53.20
2023-04-28T08:16:08.269Z,53.20
2023-04-28T08:18:40.330Z,53.50
2023-04-28T08:21:11.112Z,53.90
2023-04-28T08:23:38.127Z,54.00
2023-04-28T08:26:05.034Z,54.20
2023-04-28T08:28:33.970Z,54.50
2023-04-28T08:31:01.154Z,53.90
2023-04-28T08:33:28.363Z,53.30
2023-04-28T08:35:56.335Z,52.90
2023-04-28T08:38:33.488Z,51.80
2023-04-28T08:41:06.998Z,51.10
2023-04-28T08:43:35.513Z,48.90
2023-04-28T08:46:06.380Z,47.50
2023-04-28T08:48:40.346Z,46.90
2023-04-28T08:51:07.737Z,47.40
2023-04-28T08:54:05.984Z,47.90
2023-04-28T08:56:31.926Z,48.00
2023-04-28T08:59:04.078Z,47.70
2023-04-28T09:01:33.748Z,47.10
2023-04-28T09:04:04.120Z,46.30
2023-04-28T09:06:35.211Z,45.70
2023-04-28T09:09:20.918Z,44.90
2023-04-28T09:12:05.697Z,44.30
2023-04-28T09:14:33.919Z,43.80
2023-04-28T09:17:03.961Z,43.40
2023-04-28T09:19:40.501Z,44.00
2023-04-28T09:22:14.355Z,43.90
2023-04-28T09:24:53.225Z,44.20
2023-04-28T09:27:28.879Z,42.70
2023-04-28T09:29:55.984Z,40.50
2023-04-28T09:32:23.547Z,39.60
2023-04-28T09:34:51.581Z,38.10
2023-04-28T09:37:22.827Z,38.10
2023-04-28T09:39:55.898Z,37.30
2023-04-28T09:42:33.226Z,36.60
2023-04-28T09:45:01.983Z,35.90
2023-04-28T09:47:29.738Z,36.10
2023-04-28T09:49:57.249Z,36.50
2023-04-28T09:52:24.568Z,37.00
2023-04-28T09:54:57.297Z,37.00
2023-04-28T09:57:24.309Z,36.80
2023-04-28T09:59:52.008Z,37.10
2023-04-28T10:02:42.123Z,36.50
2023-04-28T10:05:12.494Z,36.30
2023-04-28T10:07:42.358Z,34.40
2023-04-28T10:10:15.972Z,34.30
2023-04-28T10:12:44.198Z,35.00
2023-04-28T10:15:13.005Z,35.00
2023-04-28T10:17:40.547Z,35.40
2023-04-28T10:20:11.352Z,35.10
2023-04-28T10:22:57.296Z,34.40
2023-04-28T10:25:28.206Z,33.70
2023-04-28T10:27:55.514Z,33.30
2023-04-28T10:30:29.245Z,32.30
2023-04-28T10:33:06.556Z,31.70
2023-04-28T10:35:36.396Z,30.80
2023-04-28T10:38:12.523Z,31.10
2023-04-28T10:40:39.620Z,32.20
2023-04-28T10:43:07.691Z,31.70
2023-04-28T10:45:56.027Z,31.00
2023-04-28T10:48:43.743Z,30.40
2023-04-28T10:51:12.984Z,30.70
2023-04-28T10:53:46.795Z,30.00
2023-04-28T10:56:16.776Z,29.80
2023-04-28T10:58:46.106Z,29.80
2023-04-28T11:01:22.523Z,29.50
2023-04-28T11:04:04.941Z,28.70
2023-04-28T11:06:35.878Z,28.70
2023-04-28T11:09:12.776Z,27.50
2023-04-28T11:11:40.354Z,27.00
2023-04-28T11:14:20.259Z,27.50
2023-04-28T11:16:50.901Z,27.10
2023-04-28T11:19:28.585Z,26.40
2023-04-28T11:21:59.241Z,26.20
2023-04-28T11:24:28.952Z,26.60
2023-04-28T11:26:56.132Z,26.40
2023-04-28T11:29:31.819Z,26.20
2023-04-28T11:32:01.443Z,25.30
2023-04-28T11:34:28.412Z,25.80
2023-04-28T11:36:55.276Z,25.50
2023-04-28T11:39:29.332Z,25.40
2023-04-28T11:41:56.703Z,24.60
2023-04-28T11:44:24.724Z,24.90
2023-04-28T11:47:00.695Z,25.00
2023-04-28T11:49:29.227Z,24.60
2023-04-28T11:51:56.580Z,24.40
2023-04-28T11:54:28.992Z,24.40
2023-04-28T11:56:57.465Z,24.40
2023-04-28T11:59:26.400Z,24.70
2023-04-28T12:01:55.251Z,24.50
2023-04-28T12:04:44.136Z,24.40
2023-04-28T12:07:12.724Z,24.40
2023-04-28T12:09:43.583Z,24.20
2023-04-28T12:12:12.035Z,24.40
2023-04-28T12:14:54.335Z,24.30
2023-04-28T12:17:47.273Z,24.60
2023-04-28T12:20:32.986Z,24.40
2023-04-28T12:23:00.302Z,24.50
2023-04-28T12:25:27.614Z,24.30
2023-04-28T12:28:03.201Z,24.90
2023-04-28T12:30:33.356Z,25.10
2023-04-28T12:33:00.443Z,25.80
2023-04-28T12:35:28.167Z,25.60
2023-04-28T12:37:56.196Z,25.60
2023-04-28T12:40:24.488Z,25.90
2023-04-28T12:42:51.713Z,26.00
2023-04-28T12:45:18.603Z,26.40
2023-04-28T12:47:48.381Z,26.40
2023-04-28T12:50:15.746Z,26.60
2023-04-28T12:52:42.677Z,26.80
2023-04-28T12:55:09.903Z,27.50
2023-04-28T12:57:39.113Z,27.80
2023-04-28T13:00:07.437Z,27.50
2023-04-28T13:02:34.663Z,27.50
2023-04-28T13:05:02.046Z,28.00
2023-04-28T13:07:30.585Z,28.20
2023-04-28T13:09:58.354Z,28.90
2023-04-28T13:12:26.441Z,29.40
2023-04-28T13:14:53.428Z,29.40
2023-04-28T13:17:20.500Z,29.70
2023-04-28T13:19:47.882Z,29.50
2023-04-28T13:22:15.841Z,29.90
2023-04-28T13:24:43.122Z,30.60
2023-04-28T13:27:10.465Z,30.90
2023-04-28T13:29:37.763Z,32.10
2023-04-28T13:32:07.900Z,32.90
2023-04-28T13:34:34.840Z,33.50
2023-04-28T13:37:01.832Z,33.70
2023-04-28T13:39:28.701Z,34.10
2023-04-28T13:41:55.633Z,34.10
2023-04-28T13:44:22.741Z,33.80
2023-04-28T13:46:49.837Z,33.50
2023-04-28T13:49:17.061Z,33.80
2023-04-28T13:51:45.717Z,34.00
2023-04-28T13:54:12.849Z,34.20
2023-04-28T13:56:39.757Z,34.50
2023-04-28T13:59:07.353Z,34.70
2023-04-28T14:01:34.319Z,34.80
2023-04-28T14:04:01.559Z,35.10
2023-04-28T14:06:28.919Z,35.30
2023-04-28T14:08:55.850Z,35.20
2023-04-28T14:11:22.880Z,35.80
2023-04-28T14:13:49.777Z,36.20
2023-04-28T14:16:16.892Z,36.50
2023-04-28T14:18:43.845Z,36.80
2023-04-28T14:21:11.118Z,37.10
2023-04-28T14:23:38.540Z,37.20
2023-04-28T14:26:05.664Z,37.90
2023-04-28T14:28:32.670Z,37.80
2023-04-28T14:31:03.468Z,38.00
2023-04-28T14:33:30.503Z,37.70
2023-04-28T14:35:57.299Z,37.80
2023-04-28T14:38:24.172Z,37.90
2023-04-28T14:40:51.567Z,38.10
2023-04-28T14:43:18.481Z,37.80
2023-04-28T14:45:45.396Z,37.50
2023-04-28T14:48:13.388Z,37.70
2023-04-28T14:50:40.933Z,38.10
2023-04-28T14:53:08.355Z,37.80
2023-04-28T14:55:35.237Z,37.50
2023-04-28T14:58:02.998Z,37.40
2023-04-28T15:00:30.789Z,37.70
2023-04-28T15:02:57.735Z,38.00
2023-04-28T15:05:24.654Z,38.20
2023-04-28T15:07:51.456Z,38.00
2023-04-28T15:10:18.314Z,38.40
2023-04-28T15:12:45.221Z,38.70
2023-04-28T15:15:12.544Z,39.00
2023-04-28T15:17:39.465Z,39.20
2023-04-28T15:20:07.361Z,39.10
2023-04-28T15:22:34.274Z,39.50
2023-04-28T15:25:01.228Z,39.60
2023-04-28T15:27:28.068Z,39.80
2023-04-28T15:29:54.892Z,39.80
2023-04-28T15:32:23.261Z,40.30
2023-04-28T15:34:50.588Z,40.50
2023-04-28T15:37:36.323Z,40.50
2023-04-28T15:40:04.751Z,40.50
2023-04-28T15:42:32.773Z,40.70
2023-04-28T15:44:59.729Z,41.40
2023-04-28T15:47:26.535Z,41.70
2023-04-28T15:49:53.364Z,42.20
2023-04-28T15:52:20.296Z,41.90
2023-04-28T15:54:47.176Z,42.30
2023-04-28T15:57:14.100Z,42.70
2023-04-28T15:59:41.175Z,42.70
2023-04-28T16:02:08.250Z,42.60
2023-04-28T16:04:35.381Z,42.90
2023-04-28T16:07:02.740Z,43.20
2023-04-28T16:09:29.976Z,43.60
2023-04-28T16:11:59.376Z,44.10
2023-04-28T16:14:27.032Z,43.90
2023-04-28T16:16:54.098Z,43.80
2023-04-28T16:19:21.705Z,43.90
2023-04-28T16:21:48.578Z,44.10
2023-04-28T16:24:15.363Z,44.70
2023-04-28T16:26:42.237Z,45.40
2023-04-28T16:29:09.020Z,45.60
2023-04-28T16:31:36.322Z,46.00
2023-04-28T16:34:03.940Z,46.90
2023-04-28T16:36:32.939Z,46.90
2023-04-28T16:38:59.928Z,47.10
2023-04-28T16:41:26.707Z,47.30
2023-04-28T16:43:53.797Z,47.50
2023-04-28T16:46:20.618Z,47.70
2023-04-28T16:48:47.393Z,47.80
2023-04-28T16:51:14.283Z,47.60
2023-04-28T16:53:42.185Z,47.80
2023-04-28T16:56:10.644Z,48.00
2023-04-28T16:58:37.996Z,48.20
2023-04-28T17:01:04.836Z,48.90
2023-04-28T17:03:32.066Z,48.40
2023-04-28T17:05:59.636Z,48.50
2023-04-28T17:08:26.832Z,49.30
2023-04-28T17:10:53.708Z,49.60
2023-04-28T17:13:20.530Z,50.00
2023-04-28T17:15:53.887Z,50.20
2023-04-28T17:18:20.884Z,50.50
2023-04-28T17:20:48.200Z,50.90
2023-04-28T17:23:16.141Z,51.20
2023-04-28T17:25:42.950Z,51.40
2023-04-28T17:28:09.969Z,51.90
2023-04-28T17:30:37.680Z,52.00
2023-04-28T17:33:04.741Z,52.50
2023-04-28T17:35:31.612Z,52.80
2023-04-28T17:37:58.507Z,53.00
2023-04-28T17:40:25.436Z,53.10
2023-04-28T17:42:54.181Z,53.20
2023-04-28T17:45:20.965Z,53.40
2023-04-28T17:47:47.873Z,53.60
2023-04-28T17:50:14.911Z,53.90
2023-04-28T17:52:44.109Z,54.10
2023-04-28T17:55:11.145Z,54.50
2023-04-28T17:57:37.995Z,54.80
2023-04-28T18:00:05.316Z,55.40
2023-04-28T18:02:38.781Z,56.00
2023-04-28T18:05:07.310Z,56.50
2023-04-28T18:07:34.308Z,56.90
2023-04-28T18:10:01.425Z,57.30
2023-04-28T18:12:28.309Z,57.70
2023-04-28T18:14:55.391Z,58.10
2023-04-28T18:17:23.376Z,58.50
2023-04-28T18:19:52.276Z,58.80
2023-04-28T18:22:19.158Z,59.20
2023-04-28T18:24:46.215Z,59.60
2023-04-28T18:27:14.269Z,60.30
2023-04-28T18:29:41.683Z,61.00
2023-04-28T18:32:10.393Z,61.60
2023-04-28T18:34:39.000Z,62.20
2023-04-28T18:37:06.356Z,62.60
2023-04-28T18:39:33.282Z,63.00
2023-04-28T18:42:00.256Z,63.40
2023-04-28T18:44:27.094Z,63.70
2023-04-28T18:46:54.017Z,63.80
2023-04-28T18:49:21.699Z,63.90
2023-04-28T18:51:48.471Z,64.10
2023-04-28T18:54:16.899Z,64.10
2023-04-28T18:56:47.999Z,64.30
2023-04-28T18:59:14.896Z,64.70
2023-04-28T19:01:41.982Z,64.70
2023-04-28T19:04:09.234Z,65.00
2023-04-28T19:06:36.443Z,65.10
2023-04-28T19:09:03.377Z,65.10
2023-04-28T19:11:30.710Z,65.10
2023-04-28T19:13:58.008Z,65.20
2023-04-28T19:16:24.898Z,66.10
2023-04-28T19:18:51.763Z,65.40
2023-04-28T19:21:18.826Z,65.90
2023-04-28T19:23:46.212Z,65.80
2023-04-28T19:26:13.486Z,66.00
2023-04-28T19:28:40.465Z,66.20
2023-04-28T19:31:08.181Z,66.30
2023-04-28T19:33:35.136Z,66.60
2023-04-28T19:36:03.065Z,66.60
2023-04-28T19:38:30.014Z,67.00
2023-04-28T19:41:03.304Z,67.10
2023-04-28T19:43:30.745Z,67.30
2023-04-28T19:45:57.972Z,67.40
2023-04-28T19:48:26.167Z,67.80
2023-04-28T19:50:53.080Z,68.00
2023-04-28T19:53:19.938Z,68.30
2023-04-28T19:55:47.007Z,68.70
2023-04-28T19:58:15.042Z,69.00
2023-04-28T20:00:42.036Z,69.40
2023-04-28T20:03:09.246Z,69.80
2023-04-28T20:05:39.015Z,70.00
2023-04-28T20:08:06.085Z,70.20
2023-04-28T20:10:33.055Z,70.20
2023-04-28T20:12:59.915Z,70.40
2023-04-28T20:15:26.734Z,70.40
2023-04-28T20:17:53.669Z,70.40
2023-04-28T20:20:20.609Z,70.40
2023-04-28T20:22:50.571Z,70.40
2023-04-28T20:25:17.757Z,70.30
2023-04-28T20:27:46.905Z,70.50
2023-04-28T20:30:14.452Z,70.50
2023-04-28T20:32:41.447Z,70.80
2023-04-28T20:35:08.750Z,70.80
2023-04-28T20:37:35.733Z,70.90
2023-04-28T20:40:03.136Z,71.00
2023-04-28T20:42:30.184Z,71.20
2023-04-28T20:44:57.324Z,71.20
2023-04-28T20:47:24.713Z,71.30
2023-04-28T20:49:51.850Z,71.40
2023-04-28T20:52:18.915Z,71.40
2023-04-28T20:54:46.908Z,71.60
2023-04-28T20:57:13.912Z,72.10
2023-04-28T20:59:40.961Z,72.30
2023-04-28T21:02:09.011Z,72.30
2023-04-28T21:04:36.073Z,72.20
2023-04-28T21:07:03.020Z,72.30
2023-04-28T21:09:30.047Z,72.30
2023-04-28T21:11:57.015Z,72.20
2023-04-28T21:14:24.208Z,72.30
2023-04-28T21:16:51.285Z,72.30
2023-04-28T21:19:18.531Z,72.30
2023-04-28T21:21:45.500Z,72.30
2023-04-28T21:24:12.854Z,72.40
2023-04-28T21:26:40.754Z,72.60
2023-04-28T21:29:09.059Z,72.60
2023-04-28T21:31:36.212Z,72.70
2023-04-28T21:34:03.316Z,72.80
2023-04-28T21:36:30.988Z,72.90
2023-04-28T21:38:58.192Z,72.90
2023-04-28T21:41:25.433Z,73.00
2023-04-28T21:43:52.657Z,73.00
2023-04-28T21:46:19.790Z,73.00
2023-04-28T21:48:47.500Z,73.10
2023-04-28T21:51:14.612Z,73.20
2023-04-28T21:53:41.617Z,73.20
2023-04-28T21:56:08.658Z,73.20
2023-04-28T21:58:36.159Z,73.40
2023-04-28T22:01:05.291Z,73.40
2023-04-28T22:03:35.402Z,73.60
2023-04-28T22:06:03.148Z,73.70
2023-04-28T22:08:31.662Z,73.80
2023-04-28T22:10:58.784Z,74.00
2023-04-28T22:13:25.791Z,74.10
2023-04-28T22:15:52.811Z,74.00
2023-04-28T22:18:20.309Z,74.10
2023-04-28T22:20:47.686Z,74.30
2023-04-28T22:23:14.777Z,74.20
2023-04-28T22:25:43.389Z,74.00
2023-04-28T22:28:10.419Z,73.90
2023-04-28T22:30:37.441Z,73.80
2023-04-28T22:33:04.495Z,73.70
2023-04-28T22:35:31.516Z,73.50
2023-04-28T22:37:58.438Z,73.50
2023-04-28T22:40:25.375Z,73.40
2023-04-28T22:42:52.432Z,73.30
2023-04-28T22:45:19.559Z,73.20
2023-04-28T22:47:46.758Z,73.10
2023-04-28T22:50:13.784Z,73.10
2023-04-28T22:52:40.825Z,73.10
2023-04-28T22:55:08.381Z,73.10
2023-04-28T22:57:36.413Z,73.10
2023-04-28T23:00:04.069Z,73.30
2023-04-28T23:02:31.169Z,73.40
2023-04-28T23:04:58.702Z,73.30
2023-04-28T23:07:26.085Z,73.40
2023-04-28T23:09:53.288Z,73.50
2023-04-28T23:12:20.994Z,73.60
2023-04-28T23:14:47.913Z,73.80
2023-04-28T23:17:14.886Z,73.80
2023-04-28T23:19:41.960Z,73.90
2023-04-28T23:22:08.928Z,74.00
2023-04-28T23:24:38.087Z,74.20
2023-04-28T23:27:05.307Z,74.40
2023-04-28T23:29:32.867Z,74.40
2023-04-28T23:31:59.942Z,74.50
2023-04-28T23:34:27.043Z,74.60
2023-04-28T23:36:54.105Z,74.70
2023-04-28T23:39:21.268Z,74.70
2023-04-28T23:41:48.224Z,74.80
2023-04-28T23:44:15.239Z,74.80
2023-04-28T23:46:42.119Z,74.90
2023-04-28T23:49:09.173Z,75.00
2023-04-28T23:51:36.129Z,75.20
2023-04-28T23:54:03.699Z,75.40
2023-04-28T23:56:31.663Z,75.50
2023-04-28T23:58:58.631Z,75.60
